createdAt,value
2023-12-11T00:00:04.739Z,0.169
2023-12-11T00:01:05.000Z,0.169
2023-12-11T00:02:04.107Z,0.169
2023-12-11T00:03:04.890Z,0.178
2023-12-11T00:04:05.121Z,0.178
2023-12-11T00:06:03.892Z,0.187
2023-12-11T00:07:04.959Z,0.178
2023-12-11T00:08:03.741Z,0.169
2023-12-11T00:09:04.637Z,0.169
2023-12-11T00:10:04.913Z,0.178
2023-12-11T00:12:04.517Z,0.187
2023-12-11T00:13:04.693Z,0.178
2023-12-11T00:14:04.551Z,0.169
2023-12-11T00:15:07.934Z,0.169
2023-12-11T00:16:04.785Z,0.178
2023-12-11T00:19:05.074Z,0.169
2023-12-11T00:20:03.970Z,0.161
2023-12-11T00:21:03.707Z,0.169
2023-12-11T00:22:04.886Z,0.169
2023-12-11T00:23:04.945Z,0.169
2023-12-11T00:24:04.687Z,0.152
2023-12-11T00:25:04.703Z,0.134
2023-12-11T00:26:04.448Z,0.143
2023-12-11T00:27:04.821Z,0.134
2023-12-11T00:30:04.903Z,0.178
2023-12-11T00:31:04.980Z,0.178
2023-12-11T00:32:04.653Z,0.169
2023-12-11T00:33:04.690Z,0.169
2023-12-11T00:34:05.373Z,0.161
2023-12-11T00:35:04.913Z,0.161
2023-12-11T00:38:05.442Z,0.178
2023-12-11T00:40:04.352Z,0.187
2023-12-11T00:42:03.914Z,0.169
2023-12-11T00:43:05.149Z,0.134
2023-12-11T00:44:03.933Z,0.125
2023-12-11T00:45:04.731Z,0.152
2023-12-11T00:46:04.690Z,0.143
2023-12-11T00:47:06.142Z,0.152
2023-12-11T00:48:04.600Z,0.143
2023-12-11T00:49:05.701Z,0.143
2023-12-11T00:50:07.207Z,0.152
2023-12-11T00:52:04.442Z,0.161
2023-12-11T00:53:04.261Z,0.152
2023-12-11T00:55:04.191Z,0.152
2023-12-11T00:56:04.149Z,0.143
2023-12-11T00:57:03.909Z,0.143
2023-12-11T00:58:04.956Z,0.152
2023-12-11T00:59:03.808Z,0.169
2023-12-11T01:00:04.942Z,0.161
2023-12-11T01:01:05.191Z,0.152
2023-12-11T01:02:04.367Z,0.143
2023-12-11T01:04:04.664Z,0.152
2023-12-11T01:05:04.898Z,0.169
2023-12-11T01:06:04.646Z,0.178
2023-12-11T01:07:05.039Z,0.178
2023-12-11T01:09:04.612Z,0.143
2023-12-11T01:10:04.806Z,0.143
2023-12-11T01:11:04.568Z,0.125
2023-12-11T01:13:04.241Z,0.098
2023-12-11T01:14:04.151Z,0.089
2023-12-11T01:15:03.887Z,0.089
2023-12-11T01:16:04.922Z,0.116
2023-12-11T01:17:36.201Z,0.125
2023-12-11T01:18:06.206Z,0.152
2023-12-11T01:20:04.547Z,0.134
2023-12-11T01:21:04.458Z,0.125
2023-12-11T01:22:04.579Z,0.125
2023-12-11T01:23:04.330Z,0.143
2023-12-11T01:24:07.744Z,0.152
2023-12-11T01:25:04.994Z,0.161
2023-12-11T01:26:05.026Z,0.152
2023-12-11T01:27:04.064Z,0.116
2023-12-11T01:28:04.211Z,0.098
2023-12-11T01:30:03.793Z,0.134
2023-12-11T01:31:04.995Z,0.089
2023-12-11T01:32:03.796Z,0.062
2023-12-11T01:33:05.064Z,0.071
2023-12-11T01:34:04.505Z,0.080
2023-12-11T01:35:04.734Z,0.062
2023-12-11T01:37:04.511Z,0.080
2023-12-11T01:38:05.232Z,0.098
2023-12-11T01:39:03.953Z,0.098
2023-12-11T01:40:05.190Z,0.107
2023-12-11T01:41:03.990Z,0.098
2023-12-11T01:42:03.709Z,0.089
2023-12-11T01:43:19.902Z,0.107
2023-12-11T01:44:04.038Z,0.107
2023-12-11T01:46:05.115Z,0.089
2023-12-11T01:47:04.012Z,0.089
2023-12-11T01:48:06.050Z,0.080
2023-12-11T01:51:04.699Z,0.071
2023-12-11T01:52:04.854Z,0.062
2023-12-11T01:53:04.567Z,0.045
2023-12-11T01:55:04.443Z,0.062
2023-12-11T01:56:04.231Z,0.036
2023-12-11T01:58:04.059Z,0.036
2023-12-11T01:59:03.890Z,0.045
2023-12-11T02:00:05.701Z,0.045
2023-12-11T02:02:04.441Z,0.045
2023-12-11T02:03:04.275Z,0.045
2023-12-11T02:04:05.182Z,0.045
2023-12-11T02:05:04.928Z,0.045
2023-12-11T02:06:03.769Z,0.062
2023-12-11T02:07:04.521Z,0.062
2023-12-11T02:08:04.274Z,0.071
2023-12-11T02:09:04.810Z,0.071
2023-12-11T02:10:04.813Z,0.062
2023-12-11T02:11:04.731Z,0.054
2023-12-11T02:12:04.482Z,0.054
2023-12-11T02:13:04.785Z,0.054
2023-12-11T02:14:04.632Z,0.054
2023-12-11T02:15:04.414Z,0.036
2023-12-11T02:16:04.563Z,0.036
2023-12-11T02:17:04.344Z,0.027
2023-12-11T02:18:04.806Z,0.027
2023-12-11T02:19:06.059Z,0.045
2023-12-11T02:20:04.423Z,0.036
2023-12-11T02:21:04.187Z,0.045
2023-12-11T02:22:04.240Z,0.045
2023-12-11T02:23:04.007Z,0.054
2023-12-11T02:24:03.840Z,0.071
2023-12-11T02:25:05.196Z,0.062
2023-12-11T02:26:04.064Z,0.062
2023-12-11T02:27:03.856Z,0.062
2023-12-11T02:28:04.821Z,0.054
2023-12-11T02:30:04.402Z,0.045
2023-12-11T02:31:04.528Z,0.045
2023-12-11T02:32:04.313Z,0.036
2023-12-11T02:33:04.537Z,0.045
2023-12-11T02:34:05.377Z,0.036
2023-12-11T02:35:04.591Z,0.036
2023-12-11T02:36:04.327Z,0.036
2023-12-11T02:37:04.380Z,0.045
2023-12-11T02:38:04.193Z,0.054
2023-12-11T02:39:04.428Z,0.027
2023-12-11T02:40:04.994Z,0.027
2023-12-11T02:41:03.731Z,0.027
2023-12-11T02:42:04.584Z,0.027
2023-12-11T02:43:04.582Z,0.027
2023-12-11T02:45:04.321Z,0.027
2023-12-11T02:46:04.726Z,0.027
2023-12-11T02:47:04.625Z,0.027
2023-12-11T02:48:05.089Z,0.027
2023-12-11T02:50:04.238Z,0.018
2023-12-11T02:51:04.456Z,0.027
2023-12-11T02:52:04.508Z,0.027
2023-12-11T02:54:04.057Z,0.036
2023-12-11T02:55:04.134Z,0.036
2023-12-11T02:56:03.898Z,0.036
2023-12-11T02:57:04.719Z,0.036
2023-12-11T02:58:04.873Z,0.027
2023-12-11T02:59:04.689Z,0.027
2023-12-11T03:01:04.912Z,0.036
2023-12-11T03:02:05.398Z,0.045
2023-12-11T03:03:04.228Z,0.036
2023-12-11T03:04:04.818Z,0.036
2023-12-11T03:05:04.988Z,0.036
2023-12-11T03:06:04.098Z,0.036
2023-12-11T03:07:04.238Z,0.036
2023-12-11T03:08:04.221Z,0.036
2023-12-11T03:09:04.082Z,0.027
2023-12-11T03:10:04.145Z,0.027
2023-12-11T03:11:06.508Z,0.027
2023-12-11T03:12:04.304Z,0.027
2023-12-11T03:13:04.358Z,0.027
2023-12-11T03:15:03.906Z,0.018
2023-12-11T03:16:05.006Z,0.018
2023-12-11T03:17:03.816Z,0.018
2023-12-11T03:18:05.863Z,0.018
2023-12-11T03:19:04.486Z,0.018
2023-12-11T03:20:04.964Z,0.018
2023-12-11T03:21:03.745Z,0.027
2023-12-11T03:22:04.719Z,0.027
2023-12-11T03:23:04.493Z,0.036
2023-12-11T03:24:04.266Z,0.036
2023-12-11T03:25:04.584Z,0.036
2023-12-11T03:27:03.981Z,0.027
2023-12-11T03:28:04.012Z,0.027
2023-12-11T03:32:04.633Z,0.027
2023-12-11T03:33:04.854Z,0.027
2023-12-11T03:34:05.356Z,0.027
2023-12-11T03:35:04.325Z,0.018
2023-12-11T03:36:04.083Z,0.018
2023-12-11T03:37:04.198Z,0.027
2023-12-11T03:38:03.971Z,0.027
2023-12-11T03:41:04.813Z,0.027
2023-12-11T03:43:04.827Z,0.027
2023-12-11T03:44:04.611Z,0.018
2023-12-11T03:47:04.239Z,0.018
2023-12-11T03:48:04.760Z,0.018
2023-12-11T03:49:05.246Z,0.018
2023-12-11T03:50:04.336Z,0.018
2023-12-11T03:52:04.362Z,0.018
2023-12-11T03:53:04.200Z,0.018
2023-12-11T03:56:04.064Z,0.018
2023-12-11T03:57:03.831Z,0.018
2023-12-11T03:58:05.014Z,0.018
2023-12-11T03:59:03.752Z,0.018
2023-12-11T04:00:04.515Z,0.018
2023-12-11T04:01:05.279Z,0.018
2023-12-11T04:02:05.362Z,0.018
2023-12-11T04:03:04.233Z,0.018
2023-12-11T04:04:04.570Z,0.018
2023-12-11T04:05:05.165Z,0.018
2023-12-11T04:06:04.224Z,0.018
2023-12-11T04:07:04.372Z,0.027
2023-12-11T04:09:03.883Z,0.018
2023-12-11T04:10:05.811Z,0.018
2023-12-11T04:11:04.573Z,0.018
2023-12-11T04:12:04.388Z,0.018
2023-12-11T04:13:04.394Z,0.018
2023-12-11T04:14:04.099Z,0.018
2023-12-11T04:15:03.891Z,0.018
2023-12-11T04:16:04.914Z,0.027
2023-12-11T04:19:09.912Z,0.036
2023-12-11T04:20:05.557Z,0.045
2023-12-11T04:23:04.186Z,0.054
2023-12-11T04:25:04.332Z,0.036
2023-12-11T04:26:04.408Z,0.027
2023-12-11T04:27:04.265Z,0.027
2023-12-11T04:28:04.301Z,0.027
2023-12-11T04:29:04.080Z,0.045
2023-12-11T04:32:04.582Z,0.107
2023-12-11T04:33:05.014Z,0.089
2023-12-11T04:34:05.167Z,0.098
2023-12-11T04:35:03.986Z,0.116
2023-12-11T04:36:03.656Z,0.143
2023-12-11T04:37:04.781Z,0.143
2023-12-11T04:39:04.354Z,0.134
2023-12-11T04:40:04.570Z,0.134
2023-12-11T04:41:04.432Z,0.134
2023-12-11T04:42:04.263Z,0.134
2023-12-11T04:43:04.404Z,0.152
2023-12-11T04:44:04.175Z,0.169
2023-12-11T04:47:04.692Z,0.223
2023-12-11T04:48:04.927Z,0.214
2023-12-11T04:49:04.484Z,0.214
2023-12-11T04:50:05.165Z,0.214
2023-12-11T04:51:04.105Z,0.214
2023-12-11T04:52:04.041Z,0.214
2023-12-11T04:53:03.756Z,0.223
2023-12-11T04:54:05.924Z,0.223
2023-12-11T04:56:05.059Z,0.205
2023-12-11T04:57:03.790Z,0.178
2023-12-11T04:58:04.838Z,0.161
2023-12-11T04:59:04.569Z,0.152
2023-12-11T05:00:04.437Z,0.134
2023-12-11T05:01:04.959Z,0.152
2023-12-11T05:02:04.490Z,0.152
2023-12-11T05:04:04.615Z,0.187
2023-12-11T05:05:05.713Z,0.187
2023-12-11T05:06:04.472Z,0.152
2023-12-11T05:07:04.830Z,0.125
2023-12-11T05:08:04.590Z,0.116
2023-12-11T05:09:04.364Z,0.107
2023-12-11T05:10:05.290Z,0.107
2023-12-11T05:11:04.328Z,0.107
2023-12-11T05:12:04.237Z,0.098
2023-12-11T05:14:03.895Z,0.080
2023-12-11T05:15:04.736Z,0.071
2023-12-11T05:16:05.033Z,0.071
2023-12-11T05:17:03.859Z,0.071
2023-12-11T05:18:04.898Z,0.062
2023-12-11T05:19:05.571Z,0.054
2023-12-11T05:20:05.137Z,0.062
2023-12-11T05:21:04.165Z,0.062
2023-12-11T05:22:07.007Z,0.080
2023-12-11T05:23:03.827Z,0.098
2023-12-11T05:24:04.577Z,0.107
2023-12-11T05:25:04.614Z,0.098
2023-12-11T05:27:04.225Z,0.089
2023-12-11T05:28:04.298Z,0.098
2023-12-11T05:29:03.983Z,0.107
2023-12-11T05:30:03.723Z,0.116
2023-12-11T05:31:04.979Z,0.125
2023-12-11T05:32:03.761Z,0.125
2023-12-11T05:33:05.177Z,0.125
2023-12-11T05:34:05.298Z,0.107
2023-12-11T05:35:04.238Z,0.107
2023-12-11T05:36:04.570Z,0.098
2023-12-11T05:38:08.704Z,0.125
2023-12-11T05:39:04.422Z,0.125
2023-12-11T05:40:24.247Z,0.143
2023-12-11T05:42:04.213Z,0.161
2023-12-11T05:43:04.895Z,0.152
2023-12-11T05:44:05.651Z,0.152
2023-12-11T05:46:04.675Z,0.143
2023-12-11T05:47:04.442Z,0.178
2023-12-11T05:48:04.663Z,0.187
2023-12-11T05:49:05.365Z,0.196
2023-12-11T05:50:05.068Z,0.205
2023-12-11T05:51:03.910Z,0.196
2023-12-11T05:52:04.926Z,0.196
2023-12-11T05:53:04.705Z,0.214
2023-12-11T05:54:04.459Z,0.250
2023-12-11T05:55:04.639Z,0.250
2023-12-11T05:56:06.025Z,0.232
2023-12-11T05:57:04.038Z,0.223
2023-12-11T05:58:03.867Z,0.214
2023-12-11T05:59:04.629Z,0.205
2023-12-11T06:00:04.431Z,0.196
2023-12-11T06:01:05.400Z,0.187
2023-12-11T06:02:04.617Z,0.178
2023-12-11T06:03:04.704Z,0.169
2023-12-11T06:04:04.878Z,0.169
2023-12-11T06:05:03.862Z,0.169
2023-12-11T06:06:04.792Z,0.187
2023-12-11T06:07:04.707Z,0.196
2023-12-11T06:08:03.970Z,0.205
2023-12-11T06:09:03.763Z,0.214
2023-12-11T06:10:04.821Z,0.232
2023-12-11T06:11:04.741Z,0.250
2023-12-11T06:12:04.487Z,0.268
2023-12-11T06:13:04.584Z,0.285
2023-12-11T06:15:04.272Z,0.339
2023-12-11T06:16:04.312Z,0.383
2023-12-11T06:17:04.123Z,0.437
2023-12-11T06:18:04.409Z,0.526
2023-12-11T06:19:05.310Z,0.660
2023-12-11T06:20:04.335Z,0.811
2023-12-11T06:21:08.953Z,0.963
2023-12-11T06:24:04.251Z,1.801
2023-12-11T06:25:04.296Z,2.292
2023-12-11T06:27:03.775Z,3.335
2023-12-11T06:28:07.232Z,3.995
2023-12-11T06:29:03.971Z,4.779
2023-12-11T06:30:03.687Z,5.635
2023-12-11T06:31:05.632Z,6.982
2023-12-11T06:32:04.641Z,8.391
2023-12-11T06:33:04.767Z,9.630
2023-12-11T06:35:05.210Z,13.223
2023-12-11T06:36:04.004Z,16.202
2023-12-11T06:37:05.370Z,19.572
2023-12-11T06:38:04.529Z,22.550
2023-12-11T06:41:04.270Z,28.257
2023-12-11T06:42:07.358Z,19.510
2023-12-11T06:43:04.517Z,19.251
2023-12-11T06:44:04.282Z,22.577
2023-12-11T06:45:04.972Z,21.106
2023-12-11T06:46:03.919Z,24.084
2023-12-11T06:47:04.648Z,27.677
2023-12-11T06:49:05.570Z,39.733
2023-12-11T06:50:05.496Z,53.027
2023-12-11T06:51:04.343Z,80.785
2023-12-11T06:52:04.502Z,99.751
2023-12-11T06:53:04.257Z,121.623
2023-12-11T06:54:03.955Z,150.772
2023-12-11T06:55:08.043Z,156.122
2023-12-11T06:56:03.778Z,181.864
2023-12-11T06:58:04.808Z,260.367
2023-12-11T07:00:04.633Z,350.140
2023-12-11T07:01:05.419Z,352.761
2023-12-11T07:02:05.039Z,377.576
2023-12-11T07:03:03.928Z,403.435
2023-12-11T07:04:05.838Z,433.136
2023-12-11T07:05:04.893Z,470.096
2023-12-11T07:06:04.754Z,554.608
2023-12-11T07:07:05.099Z,540.564
2023-12-11T07:08:03.861Z,514.081
2023-12-11T07:09:03.688Z,494.019
2023-12-11T07:10:05.031Z,544.416
2023-12-11T07:11:03.782Z,726.744
2023-12-11T07:12:04.544Z,840.859
2023-12-11T07:13:04.670Z,917.418
2023-12-11T07:14:05.718Z,963.802
2023-12-11T07:15:04.655Z,1000.396
2023-12-11T07:16:04.790Z,1076.474
2023-12-11T07:17:04.571Z,1164.427
2023-12-11T07:18:05.106Z,1257.999
2023-12-11T07:19:05.072Z,1335.521
2023-12-11T07:20:04.660Z,1355.583
2023-12-11T07:21:04.559Z,1370.830
2023-12-11T07:22:04.762Z,1476.279
2023-12-11T07:23:04.527Z,1650.743
2023-12-11T07:25:05.119Z,1866.615
2023-12-11T07:26:04.057Z,1804.181
2023-12-11T07:27:03.902Z,1563.912
2023-12-11T07:28:04.886Z,1161.859
2023-12-11T07:29:04.696Z,931.863
2023-12-11T07:30:03.709Z,1037.632
2023-12-11T07:31:04.835Z,1231.516
2023-12-11T07:32:06.247Z,1176.947
2023-12-11T07:33:04.656Z,1277.259
2023-12-11T07:34:08.073Z,1395.066
2023-12-11T07:35:04.287Z,1424.116
2023-12-11T07:37:05.039Z,1758.599
2023-12-11T07:38:03.846Z,1959.705
2023-12-11T07:39:04.639Z,2148.935
2023-12-11T07:40:04.624Z,2355.498
2023-12-11T07:41:07.025Z,2742.143
2023-12-11T07:42:04.682Z,3009.375
2023-12-11T07:43:04.581Z,3032.808
2023-12-11T07:44:03.819Z,2967.324
2023-12-11T07:45:04.827Z,2754.180
2023-12-11T07:46:05.143Z,2894.457
2023-12-11T07:47:04.006Z,3324.276
2023-12-11T07:48:04.549Z,3569.841
2023-12-11T07:49:05.976Z,3777.207
2023-12-11T07:50:04.493Z,3780.577
2023-12-11T07:51:04.657Z,3804.813
2023-12-11T07:52:07.128Z,4063.218
2023-12-11T07:53:03.848Z,4177.013
2023-12-11T07:54:04.677Z,4107.355
2023-12-11T07:55:04.839Z,4480.357
2023-12-11T07:56:04.600Z,4498.976
2023-12-11T07:57:04.465Z,4979.352
2023-12-11T07:58:04.879Z,5739.801
2023-12-11T07:59:04.655Z,5886.659
2023-12-11T08:00:04.480Z,6696.221
2023-12-11T08:01:04.777Z,6979.182
2023-12-11T08:02:05.281Z,6867.313
2023-12-11T08:03:04.474Z,6472.323
2023-12-11T08:04:04.848Z,7961.442
2023-12-11T08:05:05.035Z,6445.359
2023-12-11T08:06:04.298Z,6401.061
2023-12-11T08:07:04.401Z,5874.621
2023-12-11T08:08:04.201Z,5794.853
2023-12-11T08:11:04.331Z,6267.364
2023-12-11T08:14:04.200Z,6200.917
2023-12-11T08:15:03.902Z,6440.705
2023-12-11T08:16:05.022Z,6214.079
2023-12-11T08:17:03.782Z,6305.403
2023-12-11T08:18:04.960Z,6795.088
2023-12-11T08:21:07.816Z,6795.891
2023-12-11T08:22:04.839Z,6595.105
2023-12-11T08:23:04.630Z,6965.860
2023-12-11T08:24:04.633Z,7196.499
2023-12-11T08:25:04.637Z,7687.629
2023-12-11T08:26:04.384Z,7725.667
2023-12-11T08:27:04.926Z,7511.721
2023-12-11T08:28:05.014Z,8026.605
2023-12-11T08:29:07.748Z,8284.689
2023-12-11T08:31:04.623Z,11536.900
2023-12-11T08:33:04.638Z,7143.213
2023-12-11T08:34:05.254Z,7637.553
2023-12-11T08:35:04.574Z,7888.735
2023-12-11T08:36:04.449Z,7149.473
2023-12-11T08:37:04.456Z,6102.371
2023-12-11T08:38:04.190Z,6137.520
2023-12-11T08:39:03.992Z,6440.705
2023-12-11T08:40:04.267Z,6611.155
2023-12-11T08:41:04.316Z,6573.277
2023-12-11T08:42:04.104Z,6757.692
2023-12-11T08:43:04.075Z,6368.961
2023-12-11T08:45:04.697Z,6420.803
2023-12-11T08:46:04.757Z,6503.781
2023-12-11T08:47:04.712Z,6506.028
2023-12-11T08:48:05.320Z,5884.572
2023-12-11T08:49:05.083Z,5748.147
2023-12-11T08:50:04.983Z,5800.630
2023-12-11T08:51:03.778Z,5597.919
2023-12-11T08:52:05.005Z,5547.201
2023-12-11T08:53:04.432Z,5733.381
2023-12-11T08:54:04.244Z,5837.545
2023-12-11T08:55:04.434Z,6332.367
2023-12-11T08:56:04.423Z,8765.547
2023-12-11T08:57:04.229Z,14290.117
2023-12-11T08:58:04.353Z,12915.596
2023-12-11T08:59:04.095Z,15363.862
2023-12-11T09:00:04.359Z,10156.279
2023-12-11T09:02:04.653Z,6643.897
2023-12-11T09:04:04.924Z,6058.233
2023-12-11T09:05:04.173Z,6265.759
2023-12-11T09:06:07.610Z,7133.422
2023-12-11T09:07:05.589Z,6603.452
2023-12-11T09:09:05.070Z,11002.757
2023-12-11T09:10:04.294Z,12161.085
2023-12-11T09:12:03.955Z,20180.629
2023-12-11T09:13:05.121Z,20525.863
2023-12-11T09:14:03.910Z,19125.982
2023-12-11T09:15:04.810Z,19364.164
2023-12-11T09:16:05.071Z,19492.564
2023-12-11T09:17:03.923Z,19718.869
2023-12-11T09:18:05.180Z,19748.723
2023-12-11T09:19:04.682Z,19820.467
2023-12-11T09:21:04.149Z,18526.676
2023-12-11T09:22:04.284Z,17851.451
2023-12-11T09:26:04.052Z,21150.850
2023-12-11T09:27:03.813Z,22185.914
2023-12-11T09:28:05.262Z,22955.512
2023-12-11T09:29:05.123Z,23381.801
2023-12-11T09:32:04.727Z,23137.037
2023-12-11T09:33:05.140Z,22272.424
2023-12-11T09:34:05.874Z,21485.332
2023-12-11T09:35:04.708Z,21122.121
2023-12-11T09:36:04.790Z,20866.926
2023-12-11T09:37:04.823Z,20587.014
2023-12-11T09:38:06.379Z,20799.516
2023-12-11T09:39:04.096Z,21253.570
2023-12-11T09:40:04.010Z,21951.906
2023-12-11T09:41:05.858Z,23215.201
2023-12-11T09:42:04.736Z,22652.971
2023-12-11T09:43:05.258Z,20917.805
2023-12-11T09:44:06.124Z,19685.004
2023-12-11T09:45:03.884Z,19275.729
2023-12-11T09:46:05.047Z,19581.643
2023-12-11T09:47:03.915Z,19681.795
2023-12-11T09:48:19.955Z,21217.297
2023-12-11T09:51:04.473Z,19353.572
2023-12-11T09:52:04.552Z,26972.506
2023-12-11T09:53:04.362Z,15949.848
2023-12-11T09:55:04.333Z,22879.596
2023-12-11T09:58:05.228Z,21067.070
2023-12-11T09:59:04.027Z,24865.943
2023-12-11T10:00:05.720Z,23350.342
2023-12-11T10:01:05.304Z,23757.531
2023-12-11T10:02:04.603Z,35754.266
2023-12-11T10:03:05.217Z,17331.592
2023-12-11T10:04:04.301Z,17586.627
2023-12-11T10:05:04.460Z,32146.064
2023-12-11T10:06:04.502Z,20420.414
2023-12-11T10:07:04.408Z,34363.852
2023-12-11T10:08:04.279Z,49232.895
2023-12-11T10:09:04.022Z,47784.863
2023-12-11T10:10:04.014Z,45800.281
2023-12-11T10:11:03.783Z,40814.348
2023-12-11T10:13:04.566Z,17373.965
2023-12-11T10:14:07.381Z,32113.160
2023-12-11T10:15:04.284Z,33529.574
2023-12-11T10:16:04.404Z,35144.043
2023-12-11T10:19:06.409Z,34610.863
2023-12-11T10:20:05.251Z,35672.730
2023-12-11T10:21:04.351Z,19603.471
2023-12-11T10:22:04.645Z,20638.373
2023-12-11T10:23:14.823Z,21028.711
2023-12-11T10:25:04.364Z,11295.188
2023-12-11T10:26:04.459Z,11036.462
2023-12-11T10:27:04.359Z,9375.929
2023-12-11T10:28:04.448Z,9398.398
2023-12-11T10:30:04.158Z,10498.786
2023-12-11T10:31:05.210Z,10717.869
2023-12-11T10:32:03.999Z,8961.839
2023-12-11T10:33:04.178Z,11102.908
2023-12-11T10:34:06.043Z,11906.692
2023-12-11T10:35:05.097Z,12520.605
2023-12-11T10:36:04.598Z,13381.527
2023-12-11T10:37:04.690Z,14071.677
2023-12-11T10:38:04.468Z,14435.691
2023-12-11T10:39:04.237Z,14664.082
2023-12-11T10:40:04.475Z,14805.804
2023-12-11T10:41:04.565Z,13549.570
2023-12-11T10:42:04.356Z,10652.706
2023-12-11T10:43:04.337Z,8538.761
2023-12-11T10:46:07.944Z,4309.907
2023-12-11T10:49:04.954Z,2748.081
2023-12-11T10:50:04.568Z,2764.613
2023-12-11T10:51:04.614Z,3452.676
2023-12-11T10:52:04.626Z,6112.643
2023-12-11T10:53:04.710Z,7249.464
2023-12-11T10:54:07.054Z,5206.941
2023-12-11T10:55:04.273Z,5096.196
2023-12-11T10:56:05.337Z,4496.729
2023-12-11T10:57:04.879Z,4127.418
2023-12-11T10:58:05.033Z,4276.683
2023-12-11T11:00:04.748Z,3648.968
2023-12-11T11:01:05.558Z,3909.459
2023-12-11T11:02:05.830Z,5777.358
2023-12-11T11:03:04.888Z,6073.480
2023-12-11T11:04:05.268Z,8006.061
2023-12-11T11:05:04.321Z,11597.730
2023-12-11T11:06:04.976Z,12223.680
2023-12-11T11:07:04.130Z,11783.429
2023-12-11T11:08:03.886Z,11308.509
2023-12-11T11:09:04.689Z,10414.203
2023-12-11T11:10:05.177Z,9698.213
2023-12-11T11:11:04.208Z,10168.638
2023-12-11T11:12:04.106Z,10066.078
2023-12-11T11:13:05.885Z,10428.327
2023-12-11T11:14:04.669Z,10258.679
2023-12-11T11:15:04.518Z,8955.419
2023-12-11T11:16:04.803Z,8906.145
2023-12-11T11:17:04.654Z,9108.054
2023-12-11T11:18:05.071Z,8960.073
2023-12-11T11:19:04.672Z,9876.207
2023-12-11T11:20:05.243Z,10844.664
2023-12-11T11:21:04.028Z,11573.013
2023-12-11T11:22:03.874Z,12197.519
2023-12-11T11:23:05.917Z,12621.078
2023-12-11T11:24:04.302Z,13018.155
2023-12-11T11:25:04.714Z,12368.451
2023-12-11T11:26:06.047Z,11836.715
2023-12-11T11:27:05.286Z,12170.715
2023-12-11T11:28:04.930Z,12012.141
2023-12-11T11:29:05.252Z,10840.491
2023-12-11T11:30:05.200Z,11026.671
2023-12-11T11:31:07.471Z,12884.619
2023-12-11T11:32:04.742Z,13900.905
2023-12-11T11:33:05.234Z,13238.521
2023-12-11T11:34:05.400Z,12320.301
2023-12-11T11:35:04.760Z,12148.405
2023-12-11T11:37:05.146Z,12291.411
2023-12-11T11:38:03.993Z,12810.949
2023-12-11T11:39:03.955Z,12837.753
2023-12-11T11:41:07.635Z,9032.298
2023-12-11T11:42:04.588Z,8013.444
2023-12-11T11:44:04.451Z,5587.968
2023-12-11T11:45:04.398Z,5010.168
2023-12-11T11:46:04.390Z,7058.148
2023-12-11T11:47:04.505Z,7590.848
2023-12-11T11:48:05.319Z,6426.099
2023-12-11T11:49:05.106Z,5029.749
2023-12-11T11:50:04.883Z,3874.631
2023-12-11T11:51:03.827Z,3868.531
2023-12-11T11:52:05.116Z,4416.318
2023-12-11T11:53:04.023Z,4359.020
2023-12-11T11:54:03.787Z,4907.127
2023-12-11T11:55:05.694Z,4458.048
2023-12-11T11:56:04.855Z,4505.396
2023-12-11T11:57:04.674Z,4201.409
2023-12-11T11:59:04.409Z,7231.809
2023-12-11T12:00:07.387Z,9131.487
2023-12-11T12:01:04.600Z,9884.393
2023-12-11T12:02:05.398Z,10190.787
2023-12-11T12:03:04.137Z,9140.636
2023-12-11T12:04:04.612Z,7030.061
2023-12-11T12:05:06.387Z,4865.076
2023-12-11T12:06:04.705Z,3360.549
2023-12-11T12:07:04.878Z,2568.321
2023-12-11T12:09:04.444Z,3477.232
2023-12-11T12:10:04.736Z,3286.077
2023-12-11T12:11:04.755Z,3866.284
2023-12-11T12:12:04.552Z,4928.152
2023-12-11T12:13:04.885Z,5312.710
2023-12-11T12:14:05.274Z,5221.546
2023-12-11T12:15:04.469Z,6079.580
2023-12-11T12:17:04.289Z,9163.587
2023-12-11T12:18:04.641Z,8144.894
2023-12-11T12:19:05.934Z,7160.065
2023-12-11T12:20:07.922Z,6915.303
2023-12-11T12:21:03.649Z,6719.975
2023-12-11T12:22:05.185Z,6233.660
2023-12-11T12:25:04.881Z,8078.607
2023-12-11T12:27:04.505Z,7921.157
2023-12-11T12:28:04.776Z,8016.975
2023-12-11T12:29:07.657Z,7604.330
2023-12-11T12:30:07.444Z,7137.435
2023-12-11T12:31:07.492Z,8120.176
2023-12-11T12:33:08.025Z,10271.519
2023-12-11T12:34:09.112Z,9177.551
2023-12-11T12:35:07.673Z,7873.328
2023-12-11T12:36:07.613Z,7588.119
2023-12-11T12:37:07.859Z,8362.211
2023-12-11T12:39:07.581Z,9476.401
2023-12-11T12:40:07.575Z,8869.230
2023-12-11T12:41:07.358Z,8770.844
2023-12-11T12:42:10.352Z,8485.635
2023-12-11T12:43:07.294Z,8303.146
2023-12-11T12:44:04.104Z,8476.486
2023-12-11T12:45:04.245Z,8006.382
2023-12-11T12:47:04.151Z,7520.388
2023-12-11T12:48:04.778Z,8538.761
2023-12-11T12:49:05.823Z,9649.741
2023-12-11T12:50:05.424Z,10348.398
2023-12-11T12:51:04.325Z,11377.524
2023-12-11T12:52:04.543Z,11273.038
2023-12-11T12:54:04.331Z,10381.621
2023-12-11T12:55:04.450Z,10462.353
2023-12-11T12:57:04.357Z,9373.039
2023-12-11T12:58:04.600Z,9160.217
2023-12-11T13:00:04.560Z,11420.698
2023-12-11T13:01:05.259Z,10755.747
2023-12-11T13:02:04.760Z,9734.646
2023-12-11T13:05:05.043Z,10185.651
2023-12-11T13:06:04.271Z,9097.461
2023-12-11T13:07:04.374Z,8481.141
2023-12-11T13:09:04.275Z,8119.695
2023-12-11T13:10:04.834Z,8787.215
2023-12-11T13:11:04.665Z,9057.336
2023-12-11T13:13:04.523Z,7450.089
2023-12-11T13:14:04.419Z,6433.963
2023-12-11T13:15:04.370Z,6518.226
2023-12-11T13:16:05.127Z,7368.234
2023-12-11T13:17:04.095Z,7532.586
2023-12-11T13:18:04.040Z,7558.587
2023-12-11T13:19:04.731Z,7183.017
2023-12-11T13:20:06.213Z,6617.254
2023-12-11T13:22:05.156Z,5257.178
2023-12-11T13:23:04.072Z,5650.402
2023-12-11T13:24:07.933Z,6046.677
2023-12-11T13:25:05.108Z,6237.833
2023-12-11T13:26:03.909Z,6528.498
2023-12-11T13:27:04.773Z,7230.846
2023-12-11T13:28:04.806Z,7488.127
2023-12-11T13:29:04.696Z,7335.813
2023-12-11T13:30:05.039Z,7693.889
2023-12-11T13:31:05.430Z,8342.148
2023-12-11T13:32:04.247Z,8820.920
2023-12-11T13:33:04.528Z,9179.798
2023-12-11T13:34:05.166Z,9619.889
2023-12-11T13:35:04.410Z,9320.074
2023-12-11T13:37:05.564Z,8475.684
2023-12-11T13:38:04.443Z,8296.085
2023-12-11T13:39:04.253Z,7880.550
2023-12-11T13:40:04.218Z,7119.298
2023-12-11T13:41:03.983Z,6522.880
2023-12-11T13:44:03.991Z,4591.584
2023-12-11T13:46:04.489Z,3819.579
2023-12-11T13:47:04.536Z,3291.213
2023-12-11T13:48:04.738Z,3169.715
2023-12-11T13:49:06.039Z,3651.696
2023-12-11T13:50:04.938Z,3848.629
2023-12-11T13:51:03.968Z,3456.688
2023-12-11T13:52:05.277Z,3606.435
2023-12-11T13:53:04.121Z,4453.554
2023-12-11T13:54:04.006Z,5189.125
2023-12-11T13:55:04.177Z,6112.482
2023-12-11T13:56:03.993Z,6546.956
2023-12-11T13:57:05.266Z,6744.852
2023-12-11T13:58:04.379Z,6463.174
2023-12-11T13:59:04.190Z,6315.675
2023-12-11T14:00:03.977Z,6651.922
2023-12-11T14:01:04.831Z,6904.389
2023-12-11T14:02:05.984Z,7070.828
2023-12-11T14:03:16.771Z,7291.997
2023-12-11T14:05:05.571Z,7623.429
2023-12-11T14:07:04.255Z,7698.382
2023-12-11T14:08:04.029Z,7860.327
2023-12-11T14:09:03.815Z,7976.369
2023-12-11T14:10:05.036Z,7845.080
2023-12-11T14:11:03.867Z,7563.242
2023-12-11T14:12:04.984Z,7269.848
2023-12-11T14:13:04.096Z,6835.053
2023-12-11T14:15:04.056Z,5266.486
2023-12-11T14:16:04.783Z,4605.708
2023-12-11T14:17:04.954Z,4176.049
2023-12-11T14:18:04.193Z,3961.461
2023-12-11T14:19:04.626Z,3956.325
2023-12-11T14:20:05.529Z,3872.544
2023-12-11T14:22:04.410Z,3843.333
2023-12-11T14:24:04.246Z,3894.854
2023-12-11T14:25:04.485Z,3877.520
2023-12-11T14:28:05.049Z,3523.296